Time;durP1;ratioP1;P1;durP2;ratioP2;P2;SDS_P1;SDS_P2;PMS_P1;PMS_P2;Temp;Humidity;BMP_temperature;BMP_pressure;BME280_temperature;BME280_humidity;BME280_pressure;Samples;Min_cycle;Max_cycle;Signal;HPM_P1;HPM_P2
2022/08/17 00:01:15;;;;;;;5.40;3.28;;;28.00;50.40;;;;;;5022074;28;20037;-57
2022/08/17 00:03:43;;;;;;;4.10;3.50;;;28.00;50.40;;;;;;5035160;28;20029;-58
2022/08/17 00:06:30;;;;;;;3.25;2.95;;;28.00;50.30;;;;;;5031708;28;20067;-59
2022/08/17 00:09:01;;;;;;;5.25;3.47;;;28.00;50.30;;;;;;5033875;28;20037;-57
2022/08/17 00:11:31;;;;;;;4.03;3.10;;;28.00;50.20;;;;;;5034817;28;20113;-57
2022/08/17 00:14:01;;;;;;;3.65;3.08;;;28.00;50.20;;;;;;5035052;28;20048;-56
2022/08/17 00:16:31;;;;;;;3.70;3.25;;;28.00;50.10;;;;;;5020174;28;20033;-59
2022/08/17 00:18:58;;;;;;;3.30;2.92;;;28.00;50.10;;;;;;5034011;28;20108;-60
2022/08/17 00:21:25;;;;;;;3.65;3.35;;;28.00;50.10;;;;;;5034077;28;20061;-57
2022/08/17 00:23:51;;;;;;;3.58;3.00;;;28.00;50.10;;;;;;5017878;28;20333;-56
2022/08/17 00:26:19;;;;;;;4.47;3.35;;;28.00;50.10;;;;;;5030140;28;20021;-56
2022/08/17 00:28:44;;;;;;;4.00;3.28;;;28.00;50.10;;;;;;5033514;28;20030;-60
2022/08/17 00:31:11;;;;;;;4.22;3.17;;;28.00;50.00;;;;;;5024474;28;20373;-59
2022/08/17 00:33:39;;;;;;;3.95;3.47;;;28.00;50.00;;;;;;5018558;28;20099;-58
2022/08/17 00:36:06;;;;;;;4.07;3.60;;;28.00;50.00;;;;;;5018861;28;20034;-57
2022/08/17 00:38:34;;;;;;;3.95;3.17;;;28.00;50.00;;;;;;5032331;28;20044;-56
2022/08/17 00:41:04;;;;;;;3.63;3.08;;;27.90;50.00;;;;;;5027975;28;20037;-56
2022/08/17 00:43:32;;;;;;;3.72;3.33;;;28.00;50.10;;;;;;5022023;28;20033;-56
2022/08/17 00:46:00;;;;;;;4.00;3.45;;;28.00;50.10;;;;;;5017769;28;20521;-58
2022/08/17 00:48:27;;;;;;;3.50;3.20;;;28.00;50.10;;;;;;5035422;28;20033;-58
2022/08/17 00:51:05;;;;;;;6.18;3.40;;;27.90;50.00;;;;;;5037004;28;20453;-59
2022/08/17 00:53:33;;;;;;;3.25;2.95;;;27.90;50.00;;;;;;5035826;28;20395;-59
2022/08/17 00:56:02;;;;;;;5.10;3.53;;;27.90;50.00;;;;;;5035103;28;20409;-57
2022/08/17 00:58:30;;;;;;;3.30;3.00;;;28.00;50.10;;;;;;5036862;28;20032;-54
2022/08/17 01:00:56;;;;;;;3.83;3.05;;;27.90;50.00;;;;;;5037150;28;20099;-55
2022/08/17 01:03:24;;;;;;;3.83;3.00;;;27.90;50.00;;;;;;5037835;28;20341;-56
2022/08/17 01:05:53;;;;;;;4.22;3.33;;;27.90;50.00;;;;;;5022118;28;20104;-56
2022/08/17 01:08:23;;;;;;;4.05;3.55;;;28.00;50.10;;;;;;5017620;28;20483;-55
2022/08/17 01:10:54;;;;;;;4.53;3.42;;;27.90;50.00;;;;;;5018165;28;20045;-59
2022/08/17 01:13:22;;;;;;;3.92;2.85;;;27.90;50.00;;;;;;5017431;28;20038;-58
2022/08/17 01:15:56;;;;;;;3.78;3.08;;;27.90;50.00;;;;;;5017537;28;20065;-60
2022/08/17 01:18:23;;;;;;;3.22;2.92;;;27.90;50.00;;;;;;5017625;28;20107;-59
2022/08/17 01:20:52;;;;;;;3.50;3.03;;;28.00;50.10;;;;;;5021587;28;20029;-58
2022/08/17 01:23:22;;;;;;;3.50;3.20;;;27.90;50.00;;;;;;5019386;28;20424;-59
2022/08/17 01:25:55;;;;;;;4.25;3.25;;;27.90;50.00;;;;;;5018730;28;20369;-61
2022/08/17 01:28:23;;;;;;;4.20;3.13;;;27.90;50.00;;;;;;5032938;28;20053;-59
2022/08/17 01:30:50;;;;;;;3.72;2.85;;;27.90;50.00;;;;;;5036827;28;20029;-58
2022/08/17 01:33:15;;;;;;;3.38;3.05;;;27.90;50.00;;;;;;5036443;28;20128;-59
2022/08/17 01:35:41;;;;;;;4.78;3.60;;;27.90;50.00;;;;;;5037263;28;20068;-58
2022/08/17 01:38:08;;;;;;;2.90;2.70;;;27.90;50.00;;;;;;5035326;28;20128;-60
2022/08/17 01:40:37;;;;;;;4.28;3.22;;;27.90;50.00;;;;;;5017281;28;20088;-60
2022/08/17 01:43:14;;;;;;;3.45;3.15;;;27.90;50.00;;;;;;5025685;28;20042;-58
2022/08/17 01:45:45;;;;;;;4.60;3.45;;;27.90;50.00;;;;;;5035403;28;20052;-59
2022/08/17 01:48:12;;;;;;;3.88;3.17;;;27.90;50.00;;;;;;5034921;28;20033;-57
2022/08/17 01:50:40;;;;;;;3.80;2.92;;;27.90;50.00;;;;;;5016768;28;20030;-60
2022/08/17 01:53:10;;;;;;;4.10;3.08;;;27.90;50.00;;;;;;5017328;28;20033;-53
2022/08/17 01:55:47;;;;;;;6.60;3.65;;;27.90;50.00;;;;;;5024675;28;20405;-59
2022/08/17 01:58:13;;;;;;;4.65;3.40;;;27.90;50.00;;;;;;5035947;28;20037;-56
2022/08/17 02:00:41;;;;;;;3.88;3.30;;;27.90;50.00;;;;;;5033977;28;20048;-59
2022/08/17 02:03:07;;;;;;;5.25;3.30;;;27.90;50.00;;;;;;5017450;28;20037;-59
2022/08/17 02:05:34;;;;;;;3.53;3.00;;;27.80;50.00;;;;;;5016698;28;20066;-57
2022/08/17 02:08:01;;;;;;;6.93;3.17;;;27.90;50.00;;;;;;5025129;28;20031;-56
2022/08/17 02:10:28;;;;;;;4.00;3.08;;;27.80;49.90;;;;;;5025902;28;20026;-58
2022/08/17 02:12:54;;;;;;;4.03;3.42;;;27.90;50.00;;;;;;5031829;28;20034;-59
2022/08/17 02:15:21;;;;;;;4.57;3.13;;;27.80;50.00;;;;;;5034249;28;20484;-58
2022/08/17 02:17:47;;;;;;;4.93;2.90;;;27.80;50.00;;;;;;5035729;28;20025;-58
2022/08/17 02:20:13;;;;;;;3.58;3.25;;;27.80;50.00;;;;;;5036573;28;20455;-56
2022/08/17 02:22:43;;;;;;;4.35;3.45;;;27.80;50.00;;;;;;5036187;28;20038;-59
2022/08/17 02:25:11;;;;;;;3.45;3.03;;;27.90;50.00;;;;;;5020833;28;20048;-57
2022/08/17 02:27:38;;;;;;;7.63;3.20;;;27.80;50.00;;;;;;5024574;28;20047;-56
2022/08/17 02:30:06;;;;;;;3.42;3.13;;;27.80;50.00;;;;;;5036224;28;20048;-55
2022/08/17 02:32:32;;;;;;;3.60;3.22;;;27.80;50.00;;;;;;5036201;28;20041;-57
2022/08/17 02:34:59;;;;;;;2.90;2.65;;;27.80;50.00;;;;;;5036777;28;20385;-58
2022/08/17 02:37:28;;;;;;;4.88;3.53;;;27.80;50.00;;;;;;5034794;28;20029;-59
2022/08/17 02:39:55;;;;;;;3.85;3.45;;;27.80;50.00;;;;;;5033868;28;20040;-59
2022/08/17 02:42:32;;;;;;;3.88;3.28;;;27.80;50.00;;;;;;5036243;28;20052;-56
2022/08/17 02:44:59;;;;;;;4.40;3.63;;;27.80;50.00;;;;;;5036255;28;20460;-57
2022/08/17 02:47:25;;;;;;;3.42;3.13;;;27.80;50.00;;;;;;5034272;28;20468;-53
2022/08/17 02:49:52;;;;;;;3.70;3.35;;;27.80;50.10;;;;;;5033698;28;20045;-58
2022/08/17 02:52:18;;;;;;;3.83;3.42;;;27.80;50.00;;;;;;5031139;28;20462;-57
2022/08/17 02:54:44;;;;;;;3.97;3.50;;;27.80;50.00;;;;;;5015559;28;20057;-58
2022/08/17 02:57:09;;;;;;;4.55;3.47;;;27.80;50.10;;;;;;5021098;28;20112;-56
2022/08/17 02:59:36;;;;;;;3.90;3.60;;;27.80;50.10;;;;;;5035659;28;20033;-57
2022/08/17 03:02:03;;;;;;;5.05;4.05;;;27.80;50.10;;;;;;5033538;28;20033;-58
2022/08/17 03:04:29;;;;;;;3.97;3.38;;;27.80;50.10;;;;;;5035670;28;20113;-53
2022/08/17 03:06:55;;;;;;;3.55;3.25;;;27.80;50.10;;;;;;5030567;28;20087;-58
2022/08/17 03:09:21;;;;;;;4.05;3.35;;;27.80;50.10;;;;;;5015604;28;20412;-57
2022/08/17 03:11:48;;;;;;;3.53;3.22;;;27.80;50.00;;;;;;5015829;28;20046;-56
2022/08/17 03:14:14;;;;;;;3.45;3.15;;;27.70;50.00;;;;;;5029392;28;20095;-56
2022/08/17 03:16:40;;;;;;;3.50;3.20;;;27.80;50.10;;;;;;5030567;28;20041;-58
2022/08/17 03:19:05;;;;;;;3.63;3.13;;;27.70;50.00;;;;;;5034192;28;20033;-55
2022/08/17 03:21:31;;;;;;;4.97;3.10;;;27.80;50.00;;;;;;5032862;28;20029;-57
2022/08/17 03:23:57;;;;;;;4.38;3.58;;;27.70;50.00;;;;;;5015588;28;20033;-58
2022/08/17 03:26:23;;;;;;;4.75;3.60;;;27.80;50.00;;;;;;5029661;28;20029;-58
2022/08/17 03:28:49;;;;;;;3.97;3.25;;;27.70;49.90;;;;;;5027359;28;20543;-57
2022/08/17 03:31:14;;;;;;;4.25;3.28;;;27.70;49.90;;;;;;5033583;28;20040;-54
2022/08/17 03:33:40;;;;;;;3.47;3.10;;;27.70;49.90;;;;;;5032909;28;20479;-58
2022/08/17 03:36:06;;;;;;;4.20;3.65;;;27.70;49.90;;;;;;5031686;28;20067;-58
2022/08/17 03:38:32;;;;;;;4.10;3.22;;;27.70;49.90;;;;;;5026423;28;20029;-57
2022/08/17 03:40:58;;;;;;;4.18;3.47;;;27.70;49.90;;;;;;5015827;28;20034;-58
2022/08/17 03:43:24;;;;;;;4.72;3.30;;;27.70;49.90;;;;;;5020762;28;20070;-57
2022/08/17 03:57:04;;;;;;;3.78;3.38;;;27.70;50.00;;;;;;5019185;28;20116;-58
2022/08/17 03:59:30;;;;;;;3.30;2.83;;;27.70;50.10;;;;;;5035884;28;20030;-59
2022/08/17 04:01:59;;;;;;;3.92;3.38;;;27.70;50.20;;;;;;5030165;28;20042;-58
2022/08/17 04:04:25;;;;;;;4.68;3.67;;;27.70;50.20;;;;;;5019348;28;20057;-59
2022/08/17 04:06:52;;;;;;;3.97;3.40;;;27.70;50.20;;;;;;5032694;28;20025;-59
2022/08/17 04:09:18;;;;;;;3.83;3.40;;;27.60;50.10;;;;;;5032057;28;20041;-59
2022/08/17 04:11:43;;;;;;;3.35;2.97;;;27.70;50.10;;;;;;5035424;28;20041;-59
2022/08/17 04:14:09;;;;;;;3.42;3.13;;;27.70;50.00;;;;;;5038887;28;20035;-59
2022/08/17 04:16:36;;;;;;;2.90;2.60;;;27.70;50.00;;;;;;5039172;28;20116;-57
2022/08/17 04:19:04;;;;;;;4.32;3.63;;;27.70;49.90;;;;;;5037213;28;20452;-58
2022/08/17 04:21:30;;;;;;;3.75;3.17;;;27.60;49.80;;;;;;5029234;28;20034;-57
2022/08/17 04:23:57;;;;;;;3.45;2.67;;;27.60;49.70;;;;;;5018542;28;20430;-56
2022/08/17 04:26:23;;;;;;;3.30;3.00;;;27.60;49.60;;;;;;5018809;28;20038;-56
2022/08/17 04:28:49;;;;;;;2.90;2.70;;;27.60;49.50;;;;;;5018384;28;20044;-56
2022/08/17 04:31:15;;;;;;;4.13;3.35;;;27.70;49.50;;;;;;5019519;28;20453;-58
2022/08/17 04:33:44;;;;;;;3.67;2.83;;;27.60;49.40;;;;;;5038213;28;20112;-57
2022/08/17 04:36:13;;;;;;;3.10;2.80;;;27.60;49.30;;;;;;5037417;28;20453;-58
2022/08/17 04:38:40;;;;;;;4.00;3.15;;;27.60;49.30;;;;;;5034088;28;20057;-55
2022/08/17 04:43:54;;;;;;;3.40;2.58;;;27.60;49.20;;;;;;5036619;28;20135;-57
2022/08/17 04:46:30;;;;;;;3.38;3.08;;;27.60;49.20;;;;;;5038635;28;20113;-57
2022/08/17 04:48:56;;;;;;;3.13;2.83;;;27.60;49.10;;;;;;5036548;28;20033;-55
2022/08/17 04:51:29;;;;;;;3.22;2.80;;;27.60;49.10;;;;;;5038107;28;20076;-55
2022/08/17 04:54:03;;;;;;;5.30;3.00;;;27.60;49.00;;;;;;5036877;28;20053;-57
2022/08/17 04:56:31;;;;;;;3.67;2.83;;;27.60;49.00;;;;;;5026693;28;20060;-60
2022/08/17 04:59:00;;;;;;;2.80;2.60;;;27.60;48.90;;;;;;5018273;28;20096;-60
2022/08/17 05:01:29;;;;;;;7.20;2.75;;;27.60;48.90;;;;;;5021376;28;20022;-57
2022/08/17 05:03:57;;;;;;;3.80;3.13;;;27.60;48.90;;;;;;5038029;28;20026;-57
2022/08/17 05:06:25;;;;;;;3.97;2.78;;;27.60;48.80;;;;;;5032430;28;20037;-59
2022/08/17 05:08:52;;;;;;;3.05;2.70;;;27.60;48.80;;;;;;5034974;28;20033;-59
2022/08/17 05:11:18;;;;;;;3.13;2.83;;;27.60;48.70;;;;;;5037758;28;20076;-58
2022/08/17 05:13:44;;;;;;;3.08;2.60;;;27.60;48.70;;;;;;5037610;28;20364;-60
2022/08/17 05:16:10;;;;;;;4.18;2.88;;;27.60;48.70;;;;;;5031689;28;20034;-56
2022/08/17 05:18:37;;;;;;;3.50;2.85;;;27.60;48.70;;;;;;5017508;28;20125;-58
2022/08/17 05:21:05;;;;;;;3.22;2.78;;;27.60;48.70;;;;;;5028246;28;20029;-57
2022/08/17 05:23:31;;;;;;;4.80;2.70;;;27.60;48.60;;;;;;5019326;28;20026;-59
2022/08/17 05:25:57;;;;;;;3.38;3.00;;;27.60;48.60;;;;;;5022382;28;20118;-56
2022/08/17 05:28:26;;;;;;;2.92;2.60;;;27.60;48.60;;;;;;5035735;28;20033;-56
2022/08/17 05:30:52;;;;;;;3.28;2.97;;;27.60;48.60;;;;;;5017632;28;20045;-60
2022/08/17 05:33:22;;;;;;;3.38;2.95;;;27.60;48.60;;;;;;5018265;28;20053;-59
2022/08/17 05:35:50;;;;;;;3.45;2.65;;;27.60;48.50;;;;;;5019698;28;20040;-56
2022/08/17 05:38:18;;;;;;;3.17;2.88;;;27.60;48.60;;;;;;5017539;28;20037;-57
2022/08/17 05:40:45;;;;;;;3.20;2.90;;;27.50;48.50;;;;;;5017569;28;20456;-59
2022/08/17 05:43:17;;;;;;;3.83;3.03;;;27.60;48.60;;;;;;5017836;28;20038;-58
2022/08/17 05:45:51;;;;;;;3.97;3.20;;;27.50;48.60;;;;;;5017424;28;20034;-58
2022/08/17 05:48:17;;;;;;;3.47;3.03;;;27.60;48.60;;;;;;5019137;28;20029;-60
2022/08/17 05:51:02;;;;;;;3.58;3.20;;;27.50;48.60;;;;;;5022996;28;20037;-56
2022/08/17 05:53:49;;;;;;;3.33;2.85;;;27.50;48.60;;;;;;5037200;28;20518;-58
2022/08/17 05:56:39;;;;;;;3.63;3.10;;;27.50;48.60;;;;;;5035876;28;20101;-57
2022/08/17 05:59:24;;;;;;;3.80;3.40;;;27.60;48.70;;;;;;5036844;28;20029;-58
2022/08/17 06:02:22;;;;;;;6.05;3.25;;;27.50;48.70;;;;;;5021751;28;20108;-57
2022/08/17 06:05:08;;;;;;;3.85;3.10;;;27.50;48.70;;;;;;5017841;28;20116;-56
2022/08/17 06:07:55;;;;;;;3.72;3.35;;;27.50;48.70;;;;;;5032868;28;20037;-58
2022/08/17 06:10:59;;;;;;;3.80;3.50;;;27.50;48.80;;;;;;5016816;28;20050;-58
2022/08/17 06:13:37;;;;;;;3.92;3.47;;;27.50;48.90;;;;;;4993467;28;20050;-60
2022/08/17 06:16:09;;;;;;;4.07;3.30;;;27.50;48.90;;;;;;5029253;28;20126;-57
2022/08/17 06:18:44;;;;;;;4.40;3.40;;;27.50;49.00;;;;;;5021680;28;20108;-59
2022/08/17 06:21:14;;;;;;;3.85;3.55;;;27.50;49.10;;;;;;5028925;28;20025;-58
2022/08/17 06:23:49;;;;;;;3.75;3.10;;;27.50;49.10;;;;;;5016643;28;20117;-56
2022/08/17 06:26:22;;;;;;;4.90;3.20;;;27.50;49.10;;;;;;5036167;28;20034;-61
2022/08/17 06:29:02;;;;;;;3.80;3.40;;;27.60;49.30;;;;;;5035783;28;20444;-57
2022/08/17 06:31:33;;;;;;;5.85;3.88;;;27.50;49.20;;;;;;5036756;28;20037;-59
2022/08/17 06:34:01;;;;;;;4.55;4.00;;;27.50;49.20;;;;;;5030409;28;20310;-57
2022/08/17 06:36:59;;;;;;;4.07;3.67;;;27.50;49.20;;;;;;5036709;28;20056;-59
2022/08/17 06:39:48;;;;;;;7.68;4.35;;;27.60;49.40;;;;;;5023341;28;20034;-57
2022/08/17 06:42:46;;;;;;;5.93;4.03;;;27.60;49.40;;;;;;5032498;28;20080;-57
2022/08/17 06:45:21;;;;;;;5.80;3.80;;;27.50;49.40;;;;;;5021851;28;20025;-57
2022/08/17 06:47:58;;;;;;;8.25;4.55;;;27.60;49.50;;;;;;5016433;28;20433;-58
2022/08/17 06:50:33;;;;;;;5.70;4.57;;;27.60;49.60;;;;;;5024824;28;20045;-59
2022/08/17 06:53:20;;;;;;;6.07;4.32;;;27.60;49.70;;;;;;5026008;28;20029;-58
2022/08/17 06:55:56;;;;;;;4.07;3.67;;;27.60;49.80;;;;;;5019022;28;20393;-57
2022/08/17 06:58:24;;;;;;;6.30;4.22;;;27.50;49.80;;;;;;5016153;28;20026;-58
2022/08/17 07:00:52;;;;;;;4.82;4.13;;;27.60;49.90;;;;;;5017808;28;20053;-58
2022/08/17 07:03:38;;;;;;;5.80;4.50;;;27.60;50.00;;;;;;5031939;28;20026;-55
2022/08/17 07:06:13;;;;;;;7.78;4.22;;;27.50;50.00;;;;;;5017029;28;20046;-57
2022/08/17 07:08:48;;;;;;;6.57;4.15;;;27.60;50.10;;;;;;5025560;28;20087;-59
2022/08/17 07:11:31;;;;;;;5.70;4.45;;;27.60;50.10;;;;;;5027250;28;20060;-57
2022/08/17 07:14:10;;;;;;;5.47;4.60;;;27.60;50.20;;;;;;5015881;28;20120;-60
2022/08/17 07:16:49;;;;;;;6.03;4.55;;;27.60;50.20;;;;;;5021028;28;20034;-58
2022/08/17 07:19:17;;;;;;;5.55;4.85;;;27.60;50.30;;;;;;5022518;28;20560;-57
2022/08/17 07:22:02;;;;;;;5.35;4.53;;;27.60;50.40;;;;;;5017435;28;20030;-59
2022/08/17 07:24:44;;;;;;;5.63;4.97;;;27.60;50.40;;;;;;5016851;28;20033;-56
2022/08/17 07:27:12;;;;;;;5.68;4.82;;;27.60;50.50;;;;;;5015861;28;20025;-58
2022/08/17 07:29:55;;;;;;;5.57;5.00;;;27.60;50.50;;;;;;5015621;28;20042;-59
2022/08/17 07:32:30;;;;;;;5.30;4.80;;;27.60;51.20;;;;;;5033048;28;20480;-60
2022/08/17 07:35:01;;;;;;;6.68;4.88;;;27.60;50.80;;;;;;5029039;28;20034;-57
2022/08/17 07:37:31;;;;;;;5.53;5.03;;;27.60;50.90;;;;;;5020388;28;20057;-58
2022/08/17 07:39:56;;;;;;;5.30;4.65;;;27.60;51.00;;;;;;5021860;28;20022;-53
2022/08/17 07:42:22;;;;;;;6.53;4.80;;;27.60;51.10;;;;;;5021508;28;20033;-58
2022/08/17 07:44:53;;;;;;;5.85;4.82;;;27.60;51.20;;;;;;5020636;28;20132;-58
2022/08/17 07:50:25;;;;;;;5.30;4.47;;;27.60;51.50;;;;;;5022744;28;20053;-54
2022/08/17 07:52:50;;;;;;;5.13;4.03;;;27.60;51.70;;;;;;5015176;28;20041;-59
2022/08/17 07:55:29;;;;;;;4.93;4.43;;;27.60;51.80;;;;;;5015314;28;20331;-57
2022/08/17 07:57:56;;;;;;;4.90;4.40;;;27.70;51.90;;;;;;5018708;28;20416;-59
2022/08/17 08:00:23;;;;;;;5.80;4.43;;;27.70;51.90;;;;;;5025004;28;20632;-57
2022/08/17 08:03:24;;;;;;;5.10;4.50;;;27.70;51.90;;;;;;5032453;28;20092;-58
2022/08/17 08:05:56;;;;;;;4.50;4.00;;;27.70;51.90;;;;;;5032550;28;20382;-57
2022/08/17 08:08:30;;;;;;;5.43;4.50;;;27.70;51.90;;;;;;5023858;28;20044;-59
2022/08/17 08:11:06;;;;;;;4.38;3.97;;;27.70;51.80;;;;;;5034420;28;20369;-57
2022/08/17 08:13:33;;;;;;;5.53;4.32;;;27.70;51.80;;;;;;5035240;28;20042;-59
2022/08/17 08:16:27;;;;;;;4.75;4.18;;;27.70;51.70;;;;;;5029026;28;20087;-59
2022/08/17 08:18:57;;;;;;;4.65;4.13;;;27.70;51.60;;;;;;5014890;28;20057;-57
2022/08/17 08:22:01;;;;;;;4.90;4.40;;;27.70;51.50;;;;;;5014672;28;20341;-56
2022/08/17 08:24:54;;;;;;;4.32;3.92;;;27.70;51.50;;;;;;5014603;28;20107;-57
2022/08/17 08:27:19;;;;;;;4.30;3.90;;;27.80;51.50;;;;;;5015994;28;20029;-59
2022/08/17 08:29:59;;;;;;;4.30;3.90;;;27.70;51.40;;;;;;5014606;28;20041;-56
2022/08/17 08:32:46;;;;;;;4.90;3.70;;;27.80;51.50;;;;;;5014901;28;20080;-58
2022/08/17 08:35:21;;;;;;;4.07;3.67;;;27.70;51.40;;;;;;5013935;28;20037;-57
2022/08/17 08:38:06;;;;;;;4.75;3.80;;;27.80;51.40;;;;;;5026869;28;20052;-55
2022/08/17 08:40:53;;;;;;;5.28;3.67;;;27.80;51.40;;;;;;5014713;28;20034;-58
2022/08/17 08:43:53;;;;;;;3.67;3.35;;;27.80;51.30;;;;;;5015035;28;20030;-58
2022/08/17 08:46:22;;;;;;;3.97;3.55;;;27.80;51.20;;;;;;5018035;28;20137;-58
2022/08/17 08:49:15;;;;;;;3.65;3.33;;;27.80;51.20;;;;;;5018267;28;20362;-58
2022/08/17 08:51:54;;;;;;;4.22;3.33;;;27.80;51.20;;;;;;5019593;28;20124;-60
2022/08/17 08:54:55;;;;;;;4.32;3.58;;;27.80;51.20;;;;;;5028970;28;20070;-54
2022/08/17 08:57:32;;;;;;;3.70;3.30;;;27.80;51.10;;;;;;5024250;28;20032;-58
2022/08/17 09:00:18;;;;;;;3.67;3.38;;;27.80;51.10;;;;;;5034368;28;20033;-55
2022/08/17 09:03:07;;;;;;;3.58;3.28;;;27.80;51.10;;;;;;5025747;28;20137;-58
2022/08/17 09:05:42;;;;;;;7.38;3.90;;;27.80;51.10;;;;;;5027661;28;20176;-56
2022/08/17 09:08:15;;;;;;;3.92;3.63;;;27.80;51.10;;;;;;5017978;28;20026;-57
2022/08/17 09:10:52;;;;;;;5.60;4.00;;;27.80;51.10;;;;;;5027991;28;20068;-57
2022/08/17 09:13:34;;;;;;;4.65;3.75;;;27.80;51.10;;;;;;5018855;28;20037;-58
2022/08/17 09:16:07;;;;;;;5.28;3.88;;;27.90;51.10;;;;;;5024015;28;20044;-58
2022/08/17 09:18:56;;;;;;;4.32;3.92;;;27.80;51.10;;;;;;5028938;28;20038;-56
2022/08/17 09:21:44;;;;;;;3.95;3.55;;;27.90;51.10;;;;;;5020038;28;20064;-56
2022/08/17 09:24:31;;;;;;;4.20;3.40;;;27.90;51.10;;;;;;5019373;28;20025;-57
2022/08/17 09:27:07;;;;;;;4.25;3.67;;;27.90;51.10;;;;;;5020033;28;20033;-59
2022/08/17 09:29:37;;;;;;;5.07;4.03;;;27.90;51.10;;;;;;5025083;28;20405;-56
2022/08/17 09:32:16;;;;;;;4.32;3.70;;;27.90;51.20;;;;;;5021676;28;20133;-56
2022/08/17 09:34:53;;;;;;;5.72;3.53;;;27.90;51.20;;;;;;5020578;28;20044;-55
2022/08/17 09:37:55;;;;;;;6.68;3.45;;;27.90;51.10;;;;;;5018945;28;20465;-58
2022/08/17 09:40:29;;;;;;;7.63;3.72;;;27.90;51.20;;;;;;4976201;28;20038;-51
2022/08/17 09:43:03;;;;;;;5.93;3.33;;;27.90;51.20;;;;;;5013385;28;20172;-57
2022/08/17 09:45:51;;;;;;;6.38;3.35;;;28.00;51.30;;;;;;5023801;28;20040;-56
2022/08/17 09:48:24;;;;;;;6.10;3.58;;;27.90;51.20;;;;;;5025908;28;20025;-56
2022/08/17 09:51:20;;;;;;;7.00;3.60;;;27.90;51.20;;;;;;5036222;28;20045;-55
2022/08/17 09:53:47;;;;;;;5.95;3.50;;;27.90;51.30;;;;;;5036864;28;20033;-52
2022/08/17 09:56:28;;;;;;;4.60;3.65;;;27.90;51.30;;;;;;5039796;28;20026;-54
2022/08/17 09:59:18;;;;;;;3.53;3.22;;;27.90;51.30;;;;;;5016619;28;20346;-57
2022/08/17 10:02:26;;;;;;;3.20;2.90;;;27.90;51.20;;;;;;5016931;28;20061;-53
2022/08/17 10:05:16;;;;;;;3.30;3.00;;;27.90;51.20;;;;;;5016726;28;20065;-52
2022/08/17 10:07:46;;;;;;;4.93;3.63;;;28.00;51.30;;;;;;5017411;28;20025;-57
2022/08/17 10:10:19;;;;;;;3.80;3.13;;;28.00;51.20;;;;;;5016744;28;20116;-56
2022/08/17 10:13:04;;;;;;;3.78;3.40;;;28.00;51.20;;;;;;5017076;28;20022;-57
2022/08/17 10:15:52;;;;;;;3.65;3.33;;;28.00;51.20;;;;;;5017446;28;20445;-55
2022/08/17 10:18:34;;;;;;;3.38;3.08;;;28.00;51.20;;;;;;5016421;28;20045;-54
2022/08/17 10:27:22;;;;;;;4.00;3.47;;;28.00;51.10;;;;;;5016166;28;20030;-52
2022/08/17 10:29:59;;;;;;;3.20;2.90;;;28.00;51.10;;;;;;5016399;28;20437;-56
2022/08/17 10:32:45;;;;;;;3.63;3.33;;;28.00;51.10;;;;;;5016397;28;20030;-53
2022/08/17 10:35:54;;;;;;;3.92;3.53;;;28.10;51.10;;;;;;5017146;28;20120;-55
2022/08/17 10:39:01;;;;;;;3.95;3.28;;;28.10;51.10;;;;;;5016443;28;20415;-52
2022/08/17 10:41:39;;;;;;;3.65;3.30;;;28.10;51.00;;;;;;4964325;28;20039;-55
2022/08/17 10:44:34;;;;;;;4.15;3.63;;;28.10;51.00;;;;;;5020553;28;20057;-56
2022/08/17 10:47:04;;;;;;;3.50;3.08;;;28.10;51.50;;;;;;5016087;28;20044;-55
2022/08/17 10:49:33;;;;;;;3.40;3.10;;;28.10;50.90;;;;;;5016536;28;20072;-55
2022/08/17 10:52:03;;;;;;;4.68;3.70;;;28.10;50.90;;;;;;5015333;28;20034;-58
2022/08/17 10:55:05;;;;;;;4.00;3.60;;;28.10;50.90;;;;;;5016385;28;20030;-58
2022/08/17 10:57:30;;;;;;;4.18;3.50;;;28.10;50.80;;;;;;5015496;28;20033;-57
2022/08/17 11:00:05;;;;;;;3.53;3.22;;;28.10;50.70;;;;;;5015852;28;20036;-55
2022/08/17 11:02:52;;;;;;;3.30;2.97;;;28.10;50.60;;;;;;5031354;28;20033;-54
2022/08/17 11:05:23;;;;;;;3.80;3.50;;;28.10;50.50;;;;;;5035511;28;20049;-55
2022/08/17 11:08:00;;;;;;;3.92;3.60;;;28.10;50.50;;;;;;5035965;28;20033;-53
2022/08/17 11:10:37;;;;;;;4.22;3.65;;;28.10;50.50;;;;;;5035824;28;20045;-56
2022/08/17 11:13:16;;;;;;;4.00;3.60;;;28.10;50.50;;;;;;5035632;28;20040;-56
2022/08/17 11:15:50;;;;;;;3.58;3.28;;;28.10;50.50;;;;;;5034267;28;20095;-56
2022/08/17 11:18:45;;;;;;;4.32;3.42;;;28.10;50.50;;;;;;5035746;28;20345;-55
2022/08/17 11:21:23;;;;;;;;;;;28.10;50.50;;;;;;5005490;28;20128;-56
2022/08/17 11:24:15;;;;;;;3.83;3.42;;;28.10;50.50;;;;;;5035783;28;19948;-50
2022/08/17 11:26:47;;;;;;;3.97;3.35;;;28.10;50.50;;;;;;5034929;28;20095;-56
2022/08/17 11:29:49;;;;;;;4.13;3.60;;;28.10;50.50;;;;;;5030528;28;20048;-57
2022/08/17 11:32:32;;;;;;;4.32;3.53;;;28.10;50.70;;;;;;5013915;28;20049;-53
2022/08/17 11:35:10;;;;;;;3.95;3.58;;;28.10;50.90;;;;;;5015797;28;20160;-57
2022/08/17 11:37:43;;;;;;;3.72;3.40;;;28.10;51.00;;;;;;5015422;28;20117;-57
2022/08/17 11:40:25;;;;;;;3.92;3.53;;;28.10;51.10;;;;;;5015630;28;20105;-54
2022/08/17 11:43:14;;;;;;;4.47;4.00;;;28.10;51.10;;;;;;5015327;28;20030;-55
2022/08/17 11:45:51;;;;;;;4.30;3.90;;;28.10;51.30;;;;;;5014827;28;20029;-56
2022/08/17 11:51:33;;;;;;;4.35;3.95;;;28.10;51.60;;;;;;5015111;28;20505;-56
2022/08/17 11:54:08;;;;;;;;;;;28.10;51.80;;;;;;5015506;28;20112;-56
2022/08/17 11:56:40;;;;;;;4.03;3.42;;;28.10;51.80;;;;;;5015463;28;19952;-54
2022/08/17 11:59:42;;;;;;;3.85;3.55;;;28.10;52.00;;;;;;5014543;28;20392;-58
2022/08/17 12:02:33;;;;;;;4.40;4.00;;;28.10;52.20;;;;;;5015430;28;20034;-51
2022/08/17 12:05:26;;;;;;;4.18;3.75;;;28.10;52.40;;;;;;5015237;28;20057;-53
2022/08/17 12:08:03;;;;;;;4.22;3.83;;;28.10;52.60;;;;;;5010284;28;20500;-54
2022/08/17 12:10:33;;;;;;;5.18;3.85;;;28.10;52.80;;;;;;5015374;28;20107;-57
2022/08/17 12:13:13;;;;;;;5.00;4.20;;;28.10;52.90;;;;;;5015272;28;20030;-57
2022/08/17 12:15:43;;;;;;;5.43;3.75;;;28.10;53.00;;;;;;5018803;28;20494;-57
2022/08/17 12:18:22;;;;;;;4.90;4.25;;;28.10;53.10;;;;;;5015344;28;20030;-55
2022/08/17 12:21:14;;;;;;;4.13;3.72;;;28.10;53.20;;;;;;5016705;28;20029;-55
2022/08/17 12:23:53;;;;;;;4.20;3.80;;;28.10;53.20;;;;;;5025453;28;20113;-56
2022/08/17 12:26:29;;;;;;;3.88;3.47;;;28.10;53.30;;;;;;5019078;28;20100;-54
2022/08/17 12:28:59;;;;;;;4.20;3.88;;;28.10;53.30;;;;;;5018401;28;20042;-54
2022/08/17 12:31:29;;;;;;;4.00;3.47;;;28.10;53.40;;;;;;5018587;28;20062;-58
2022/08/17 12:33:55;;;;;;;3.85;3.45;;;28.10;53.40;;;;;;5019252;28;20037;-52
2022/08/17 12:36:24;;;;;;;3.88;3.47;;;28.10;53.40;;;;;;5018897;28;20033;-54
2022/08/17 12:39:02;;;;;;;3.83;3.53;;;28.10;53.50;;;;;;5018875;28;20022;-57
2022/08/17 12:41:41;;;;;;;3.85;3.50;;;28.10;54.10;;;;;;5018505;28;20033;-53
2022/08/17 12:44:20;;;;;;;3.38;3.08;;;28.10;53.50;;;;;;5019013;28;20030;-53
2022/08/17 12:46:58;;;;;;;3.92;3.53;;;28.10;53.50;;;;;;5018173;28;20045;-57
2022/08/17 12:49:34;;;;;;;3.67;3.38;;;28.10;53.70;;;;;;5019323;28;20030;-57
2022/08/17 12:52:08;;;;;;;4.05;3.67;;;28.10;53.70;;;;;;5018385;28;20108;-57
2022/08/17 12:54:54;;;;;;;4.47;3.47;;;28.10;53.80;;;;;;5018595;28;20072;-54
2022/08/17 12:57:41;;;;;;;4.13;3.60;;;28.10;53.90;;;;;;5018272;28;20080;-56
2022/08/17 13:00:15;;;;;;;3.97;3.58;;;28.10;54.00;;;;;;5018245;28;20113;-51
2022/08/17 13:02:43;;;;;;;3.92;3.63;;;28.10;54.00;;;;;;5030283;28;20095;-58
2022/08/17 13:05:37;;;;;;;4.15;3.30;;;28.10;54.00;;;;;;5031745;28;20045;-56
2022/08/17 13:08:15;;;;;;;4.15;3.78;;;28.10;54.00;;;;;;5028314;28;20124;-56
2022/08/17 13:10:42;;;;;;;3.83;3.53;;;28.10;54.10;;;;;;5028331;28;20053;-55
2022/08/17 13:13:23;;;;;;;4.13;3.67;;;28.10;54.10;;;;;;5026302;28;20091;-55
2022/08/17 13:15:58;;;;;;;3.92;3.63;;;28.10;54.10;;;;;;5021952;28;20345;-57
2022/08/17 13:18:47;;;;;;;3.92;3.63;;;28.10;54.10;;;;;;5027355;28;20033;-55
2022/08/17 13:21:22;;;;;;;3.90;3.58;;;28.10;54.00;;;;;;5022636;28;20029;-55
2022/08/17 13:24:09;;;;;;;4.00;3.60;;;28.10;54.00;;;;;;5020615;28;20061;-53
2022/08/17 13:26:40;;;;;;;4.45;3.92;;;28.10;54.00;;;;;;5017662;28;20034;-56
2022/08/17 13:29:26;;;;;;;3.92;3.63;;;28.10;54.00;;;;;;5017661;28;20053;-55
2022/08/17 13:31:54;;;;;;;4.43;3.70;;;28.10;54.10;;;;;;5017133;28;20038;-55
2022/08/17 13:34:23;;;;;;;4.47;4.07;;;28.10;54.10;;;;;;5018078;28;20086;-58
2022/08/17 13:36:51;;;;;;;4.82;4.20;;;28.10;54.10;;;;;;5024946;28;20041;-58
2022/08/17 13:39:23;;;;;;;4.22;3.83;;;28.10;54.10;;;;;;5024900;28;20022;-57
2022/08/17 13:41:51;;;;;;;4.43;4.03;;;28.10;54.10;;;;;;5026622;28;20079;-55
2022/08/17 13:44:38;;;;;;;4.50;4.00;;;28.10;54.10;;;;;;5024960;28;20036;-56
2022/08/17 13:47:15;;;;;;;4.03;3.63;;;28.10;54.10;;;;;;5024474;28;20026;-56
2022/08/17 13:49:41;;;;;;;4.20;3.65;;;28.10;54.10;;;;;;5024088;28;20041;-56
2022/08/17 13:52:30;;;;;;;3.95;3.55;;;28.10;54.10;;;;;;5026095;28;20116;-58